Time;durP1;ratioP1;P1;durP2;ratioP2;P2;SDS_P1;SDS_P2;PMS_P1;PMS_P2;Temp;Humidity;BMP_temperature;BMP_pressure;BME280_temperature;BME280_humidity;BME280_pressure;Samples;Min_cycle;Max_cycle;Signal;HPM_P1;HPM_P2
2022/09/08 00:01:46;;;;;;;;;;;22.80;67.90;;;;;;4918435;29;20011;-66
2022/09/08 00:04:12;;;;;;;;;;;22.70;67.90;;;;;;4918392;29;19915;-67
2022/09/08 00:06:37;;;;;;;;;;;22.70;68.20;;;;;;4918450;29;19911;-67
2022/09/08 00:09:04;;;;;;;;;;;22.70;67.80;;;;;;4918099;29;19931;-67
2022/09/08 00:11:31;;;;;;;;;;;22.70;67.40;;;;;;4918439;29;19915;-67
2022/09/08 00:14:01;;;;;;;;;;;22.70;67.10;;;;;;4918295;29;19915;-66
2022/09/08 00:16:27;;;;;;;;;;;22.80;66.40;;;;;;4918194;29;20427;-67
2022/09/08 00:18:53;;;;;;;;;;;22.80;66.70;;;;;;4918043;29;19915;-66
2022/09/08 00:21:19;;;;;;;;;;;22.60;67.40;;;;;;4918455;29;19915;-66
2022/09/08 00:23:45;;;;;;;;;;;22.40;67.40;;;;;;4906146;29;19922;-68
2022/09/08 00:26:10;;;;;;;;;;;22.30;69.30;;;;;;4918055;29;19919;-66
2022/09/08 00:28:36;;;;;;;;;;;22.20;70.20;;;;;;4918510;29;19915;-67
2022/09/08 00:31:03;;;;;;;;;;;22.20;70.00;;;;;;4916754;29;20002;-68
2022/09/08 00:33:29;;;;;;;;;;;22.20;70.20;;;;;;4917857;29;19922;-67
2022/09/08 00:35:54;;;;;;;;;;;22.20;69.80;;;;;;4918046;29;19978;-67
2022/09/08 00:38:21;;;;;;;;;;;22.20;69.80;;;;;;4917900;29;20415;-68
2022/09/08 00:40:48;;;;;;;;;;;22.30;69.60;;;;;;4917674;29;19919;-67
2022/09/08 00:43:31;;;;;;;;;;;22.40;69.40;;;;;;4917416;29;19978;-68
2022/09/08 00:45:59;;;;;;;;;;;22.50;69.10;;;;;;4917763;29;20349;-67
2022/09/08 00:48:25;;;;;;;;;;;22.60;68.60;;;;;;4917569;29;20380;-67
2022/09/08 00:50:50;;;;;;;;;;;22.60;68.40;;;;;;4917815;29;19915;-66
2022/09/08 00:53:17;;;;;;;;;;;22.60;68.40;;;;;;4900632;29;20257;-67
2022/09/08 00:55:43;;;;;;;;;;;22.50;68.70;;;;;;4917613;29;20410;-67
2022/09/08 00:58:09;;;;;;;;;;;22.40;69.00;;;;;;4917537;29;20010;-67
2022/09/08 01:00:36;;;;;;;;;;;22.40;68.20;;;;;;4917473;29;19915;-67
2022/09/08 01:03:01;;;;;;;;;;;22.40;67.90;;;;;;4917949;29;19922;-66
2022/09/08 01:05:34;;;;;;;;;;;22.50;67.70;;;;;;4917337;29;19915;-66
2022/09/08 01:13:35;;;;;;;;;;;22.20;68.40;;;;;;4917204;29;20287;-65
2022/09/08 01:16:01;;;;;;;;;;;22.30;68.10;;;;;;4916829;29;19930;-66
2022/09/08 01:18:27;;;;;;;;;;;22.30;67.90;;;;;;4917003;29;19927;-66
2022/09/08 01:21:04;;;;;;;;;;;22.40;68.00;;;;;;4916973;29;19915;-66
2022/09/08 01:23:48;;;;;;;;;;;22.40;67.30;;;;;;4905975;29;19946;-66
2022/09/08 01:26:14;;;;;;;;;;;22.60;66.70;;;;;;4916872;29;19919;-66
2022/09/08 01:28:51;;;;;;;;;;;22.60;67.10;;;;;;4916864;29;20280;-65
2022/09/08 01:31:17;;;;;;;;;;;22.50;67.60;;;;;;4916699;29;20454;-67
2022/09/08 01:33:43;;;;;;;;;;;22.50;67.60;;;;;;4916786;29;19922;-66
2022/09/08 01:36:10;;;;;;;;;;;22.60;66.80;;;;;;4916781;29;19919;-65
2022/09/08 01:38:35;;;;;;;;;;;22.70;65.70;;;;;;4916696;29;19967;-66
2022/09/08 01:41:01;;;;;;;;;;;22.80;65.00;;;;;;4915426;29;19919;-65
2022/09/08 01:43:27;;;;;;;;;;;22.90;64.80;;;;;;4916407;29;20347;-66
2022/09/08 01:45:55;;;;;;;;;;;22.90;64.30;;;;;;4916718;29;19915;-65
2022/09/08 01:48:20;;;;;;;;;;;22.90;64.50;;;;;;4916527;29;19920;-66
2022/09/08 01:50:46;;;;;;;;;;;22.70;66.30;;;;;;4915240;29;19993;-66
2022/09/08 01:53:11;;;;;;;;;;;22.60;66.30;;;;;;4902274;29;19919;-66
2022/09/08 01:55:37;;;;;;;;;;;22.50;67.60;;;;;;4915756;29;19922;-66
2022/09/08 01:58:03;;;;;;;;;;;22.60;67.80;;;;;;4916346;29;19919;-65
2022/09/08 02:00:28;;;;;;;;;;;22.60;67.50;;;;;;4916070;29;19919;-65
2022/09/08 02:02:54;;;;;;;;;;;22.60;67.30;;;;;;4916573;29;20025;-65
2022/09/08 02:05:19;;;;;;;;;;;22.60;67.00;;;;;;4916252;29;19926;-66
2022/09/08 02:07:45;;;;;;;;;;;22.70;65.90;;;;;;4916268;29;19919;-64
2022/09/08 02:10:10;;;;;;;;;;;22.70;64.30;;;;;;4915836;29;19938;-65
2022/09/08 02:12:36;;;;;;;;;;;22.80;63.80;;;;;;4916514;29;19954;-66
2022/09/08 02:15:02;;;;;;;;;;;23.00;63.00;;;;;;4916303;29;19915;-65
2022/09/08 02:17:28;;;;;;;;;;;23.10;62.70;;;;;;4916196;29;20427;-66
2022/09/08 02:19:53;;;;;;;;;;;23.00;64.40;;;;;;4916109;29;20276;-65
2022/09/08 02:22:19;;;;;;;;;;;22.90;66.40;;;;;;4905045;29;19934;-66
2022/09/08 02:24:44;;;;;;;;;;;22.50;68.20;;;;;;4915909;29;19926;-65
2022/09/08 02:27:10;;;;;;;;;;;22.20;69.70;;;;;;4915937;29;19915;-65
2022/09/08 02:29:35;;;;;;;;;;;22.40;71.90;;;;;;4916061;29;19970;-66
2022/09/08 02:32:01;;;;;;;;;;;22.40;72.30;;;;;;4915018;29;19922;-65
2022/09/08 02:34:27;;;;;;;;;;;22.40;72.30;;;;;;4914708;29;20443;-67
2022/09/08 02:36:52;;;;;;;;;;;22.50;71.50;;;;;;4915675;29;19930;-66
2022/09/08 02:39:19;;;;;;;;;;;22.40;72.10;;;;;;4915905;29;19922;-66
2022/09/08 02:41:45;;;;;;;;;;;22.30;73.60;;;;;;4915704;29;19911;-66
2022/09/08 02:44:13;;;;;;;;;;;22.00;74.40;;;;;;4916028;29;19922;-66
2022/09/08 02:46:39;;;;;;;;;;;21.90;74.20;;;;;;4915692;29;19930;-64
2022/09/08 02:49:05;;;;;;;;;;;21.90;73.50;;;;;;4915914;29;19915;-67
2022/09/08 02:51:31;;;;;;;;;;;22.00;73.00;;;;;;4915828;29;19918;-65
2022/09/08 02:53:57;;;;;;;;;;;22.20;71.60;;;;;;4900722;29;19915;-65
2022/09/08 02:56:23;;;;;;;;;;;22.40;69.90;;;;;;4915633;29;20303;-66
2022/09/08 02:58:49;;;;;;;;;;;22.50;67.50;;;;;;4915631;29;20374;-65
2022/09/08 03:01:14;;;;;;;;;;;22.50;66.60;;;;;;4915818;29;19911;-65
2022/09/08 03:03:40;;;;;;;;;;;22.40;67.10;;;;;;4915546;29;19915;-65
2022/09/08 03:06:06;;;;;;;;;;;22.20;68.20;;;;;;4915819;29;20283;-64
2022/09/08 03:08:32;;;;;;;;;;;22.00;69.80;;;;;;4919345;29;20386;-65
2022/09/08 03:10:58;;;;;;;;;;;21.80;71.10;;;;;;4919373;29;20450;-65
2022/09/08 03:13:24;;;;;;;;;;;21.70;72.60;;;;;;4919680;29;19953;-65
2022/09/08 03:15:50;;;;;;;;;;;21.60;72.60;;;;;;4919016;29;20376;-66
2022/09/08 03:18:15;;;;;;;;;;;21.40;73.90;;;;;;4918133;29;19967;-67
2022/09/08 03:20:42;;;;;;;;;;;21.30;73.90;;;;;;4919252;29;20342;-65
2022/09/08 03:23:10;;;;;;;;;;;21.30;73.70;;;;;;4906166;29;19911;-65
2022/09/08 03:25:36;;;;;;;;;;;21.30;74.30;;;;;;4919152;29;19922;-65
2022/09/08 03:28:02;;;;;;;;;;;21.40;74.00;;;;;;4918933;29;20307;-65
2022/09/08 03:30:28;;;;;;;;;;;21.50;73.20;;;;;;4917698;29;20347;-65
2022/09/08 03:32:54;;;;;;;;;;;21.50;72.40;;;;;;4919048;29;19911;-66
2022/09/08 03:35:19;;;;;;;;;;;21.50;72.20;;;;;;4919033;29;19919;-66
2022/09/08 03:37:45;;;;;;;;;;;21.50;72.00;;;;;;4918904;29;20368;-67
2022/09/08 03:40:12;;;;;;;;;;;21.60;71.30;;;;;;4918935;29;19911;-66
2022/09/08 03:42:39;;;;;;;;;;;21.50;71.70;;;;;;4919111;29;19922;-66
2022/09/08 03:45:05;;;;;;;;;;;21.40;72.00;;;;;;4918945;29;20371;-66
2022/09/08 03:47:31;;;;;;;;;;;21.40;71.40;;;;;;4918817;29;19926;-66
2022/09/08 03:49:57;;;;;;;;;;;21.50;71.00;;;;;;4918750;29;19915;-66
2022/09/08 03:52:23;;;;;;;;;;;21.70;70.10;;;;;;4903807;29;20005;-65
2022/09/08 03:54:50;;;;;;;;;;;21.70;69.50;;;;;;4918832;29;19933;-66
2022/09/08 03:57:21;;;;;;;;;;;21.70;70.20;;;;;;4918631;29;20383;-66
2022/09/08 03:59:48;;;;;;;;;;;21.60;70.90;;;;;;4918300;29;19911;-66
2022/09/08 04:02:14;;;;;;;;;;;21.40;70.70;;;;;;4918570;29;19980;-66
2022/09/08 04:04:40;;;;;;;;;;;21.50;70.60;;;;;;4918442;29;20415;-66
2022/09/08 04:07:05;;;;;;;;;;;21.80;64.90;;;;;;4918133;29;19919;-65
2022/09/08 04:09:31;;;;;;;;;;;22.10;64.80;;;;;;4918380;29;20047;-66
2022/09/08 04:11:57;;;;;;;;;;;22.20;64.70;;;;;;4918326;29;20382;-66
2022/09/08 04:14:22;;;;;;;;;;;22.20;65.60;;;;;;4918480;29;19963;-66
2022/09/08 04:16:48;;;;;;;;;;;22.20;66.10;;;;;;4920540;29;19971;-66
2022/09/08 04:19:13;;;;;;;;;;;22.30;66.10;;;;;;4919894;29;20331;-64
2022/09/08 04:21:39;;;;;;;;;;;22.40;65.00;;;;;;4920511;29;19916;-66
2022/09/08 04:24:05;;;;;;;;;;;22.20;65.90;;;;;;4912538;29;19922;-65
2022/09/08 04:26:31;;;;;;;;;;;21.90;66.90;;;;;;4928360;29;19912;-65
2022/09/08 04:28:57;;;;;;;;;;;21.90;68.10;;;;;;4925142;29;19951;-65
2022/09/08 04:31:23;;;;;;;;;;;21.90;67.90;;;;;;4918201;29;20423;-66
2022/09/08 04:33:48;;;;;;;;;;;22.00;67.30;;;;;;4917939;29;20022;-64
2022/09/08 04:36:15;;;;;;;;;;;22.10;65.90;;;;;;4917753;29;19919;-65
2022/09/08 04:38:41;;;;;;;;;;;22.20;64.90;;;;;;4918057;29;19911;-64
2022/09/08 04:41:08;;;;;;;;;;;22.20;66.40;;;;;;4917820;29;19958;-64
2022/09/08 04:43:34;;;;;;;;;;;22.10;68.30;;;;;;4917778;29;20335;-63
2022/09/08 04:46:01;;;;;;;;;;;21.90;69.40;;;;;;4918002;29;19911;-65
2022/09/08 04:48:28;;;;;;;;;;;21.90;70.00;;;;;;4917690;29;20375;-65
2022/09/08 04:50:53;;;;;;;;;;;22.00;69.60;;;;;;4917612;29;19922;-65
2022/09/08 04:53:19;;;;;;;;;;;21.90;69.00;;;;;;4908755;29;19911;-65
2022/09/08 04:55:44;;;;;;;;;;;21.90;68.70;;;;;;4917577;29;19919;-66
2022/09/08 04:58:10;;;;;;;;;;;22.00;68.50;;;;;;4917743;29;19915;-66
2022/09/08 05:00:36;;;;;;;;;;;22.10;68.30;;;;;;4917328;29;19911;-66
2022/09/08 05:03:02;;;;;;;;;;;22.10;68.30;;;;;;4917546;29;19918;-66
2022/09/08 05:05:28;;;;;;;;;;;22.30;66.80;;;;;;4917164;29;19915;-66
2022/09/08 05:07:53;;;;;;;;;;;22.60;64.40;;;;;;4917448;29;19915;-66
2022/09/08 05:10:19;;;;;;;;;;;22.80;62.40;;;;;;4917078;29;20018;-66
2022/09/08 05:12:44;;;;;;;;;;;22.90;62.90;;;;;;4917413;29;19958;-66
2022/09/08 05:15:10;;;;;;;;;;;22.80;66.60;;;;;;4917145;29;20376;-65
2022/09/08 05:17:35;;;;;;;;;;;22.80;66.10;;;;;;4917050;29;19919;-65
2022/09/08 05:20:01;;;;;;;;;;;22.60;67.70;;;;;;4916943;29;19915;-66
2022/09/08 05:22:27;;;;;;;;;;;22.60;68.40;;;;;;4907043;29;20464;-65
2022/09/08 05:24:53;;;;;;;;;;;22.40;68.00;;;;;;4917435;29;20018;-65
2022/09/08 05:27:19;;;;;;;;;;;22.40;67.00;;;;;;4917003;29;19959;-64
2022/09/08 05:29:44;;;;;;;;;;;22.40;69.20;;;;;;4916762;29;19947;-64
2022/09/08 05:32:10;;;;;;;;;;;22.40;68.80;;;;;;4917005;29;19911;-66
2022/09/08 05:34:35;;;;;;;;;;;22.40;68.50;;;;;;4916683;29;19911;-66
2022/09/08 05:37:01;;;;;;;;;;;22.40;69.20;;;;;;4916768;29;19930;-67
2022/09/08 05:39:26;;;;;;;;;;;22.50;69.20;;;;;;4916753;29;19917;-66
2022/09/08 05:41:52;;;;;;;;;;;22.40;69.70;;;;;;4916714;29;19928;-67
2022/09/08 05:44:18;;;;;;;;;;;22.40;71.20;;;;;;4916779;29;19919;-66
2022/09/08 05:46:43;;;;;;;;;;;22.40;71.80;;;;;;4916540;29;20295;-66
2022/09/08 05:49:09;;;;;;;;;;;22.40;71.30;;;;;;4916539;29;20432;-64
2022/09/08 05:51:34;;;;;;;;;;;22.50;71.50;;;;;;4916751;29;19919;-68
2022/09/08 05:54:01;;;;;;;;;;;22.50;70.40;;;;;;4910514;29;20328;-72
2022/09/08 05:56:26;;;;;;;;;;;22.50;68.90;;;;;;4916370;29;20394;-66
2022/09/08 05:58:53;;;;;;;;;;;22.70;68.70;;;;;;4916312;29;19970;-67
2022/09/08 06:01:18;;;;;;;;;;;22.70;66.70;;;;;;4916340;29;19915;-66
2022/09/08 06:03:44;;;;;;;;;;;22.90;66.50;;;;;;4916303;29;20002;-68
2022/09/08 06:06:10;;;;;;;;;;;23.10;60.00;;;;;;4916361;29;19983;-67
2022/09/08 06:08:37;;;;;;;;;;;23.20;60.60;;;;;;4916212;29;20372;-70
2022/09/08 06:11:03;;;;;;;;;;;23.30;63.30;;;;;;4916443;29;19919;-65
2022/09/08 06:13:30;;;;;;;;;;;23.40;61.60;;;;;;4916189;29;19990;-65
2022/09/08 06:16:02;;;;;;;;;;;23.50;60.80;;;;;;4916070;29;19923;-66
2022/09/08 06:18:27;;;;;;;;;;;23.60;61.90;;;;;;4916156;29;19918;-66
2022/09/08 06:20:53;;;;;;;;;;;23.40;63.30;;;;;;4916093;29;19915;-65
2022/09/08 06:23:18;;;;;;;;;;;23.50;62.20;;;;;;4904305;29;19914;-65
2022/09/08 06:25:45;;;;;;;;;;;23.50;64.20;;;;;;4916141;29;19911;-66
2022/09/08 06:28:29;;;;;;;;;;;23.50;62.20;;;;;;4916024;29;20047;-65
2022/09/08 06:30:55;;;;;;;;;;;23.60;61.00;;;;;;4915926;29;20367;-67
2022/09/08 06:33:27;;;;;;;;;;;23.70;60.70;;;;;;4916203;29;19970;-67
2022/09/08 06:36:03;;;;;;;;;;;23.80;60.70;;;;;;4915797;29;19923;-67
2022/09/08 06:38:31;;;;;;;;;;;23.80;61.10;;;;;;4915836;29;20412;-65
2022/09/08 06:41:18;;;;;;;;;;;23.80;61.90;;;;;;4916435;29;19915;-67
2022/09/08 06:43:55;;;;;;;;;;;23.80;62.30;;;;;;4922181;29;19970;-72
2022/09/08 06:46:22;;;;;;;;;;;23.80;62.40;;;;;;4922215;29;19919;-68
2022/09/08 06:48:48;;;;;;;;;;;23.80;63.20;;;;;;4922081;29;19912;-70
2022/09/08 06:51:25;;;;;;;;;;;23.80;63.40;;;;;;4922071;29;19911;-69
2022/09/08 06:53:51;;;;;;;;;;;23.90;63.40;;;;;;4910580;29;19958;-70
2022/09/08 06:56:23;;;;;;;;;;;23.80;63.90;;;;;;4921934;29;19923;-68
2022/09/08 06:58:50;;;;;;;;;;;23.90;64.70;;;;;;4921909;29;20042;-65
2022/09/08 07:01:21;;;;;;;;;;;24.00;65.10;;;;;;4922155;29;19912;-66
2022/09/08 07:03:49;;;;;;;;;;;24.00;65.00;;;;;;4921903;29;19918;-64
2022/09/08 07:06:16;;;;;;;;;;;24.00;65.10;;;;;;4922008;29;19926;-66
2022/09/08 07:08:48;;;;;;;;;;;24.00;66.40;;;;;;4921861;29;19942;-67
2022/09/08 07:11:16;;;;;;;;;;;24.10;66.60;;;;;;4922065;29;19915;-66
2022/09/08 07:14:00;;;;;;;;;;;24.20;66.90;;;;;;4921879;29;19915;-69
2022/09/08 07:16:29;;;;;;;;;;;24.20;67.80;;;;;;4921761;29;19926;-67
2022/09/08 07:19:13;;;;;;;;;;;24.20;68.00;;;;;;4921828;29;19922;-66
2022/09/08 07:21:49;;;;;;;;;;;24.30;68.10;;;;;;4921453;29;20288;-67
2022/09/08 07:24:17;;;;;;;;;;;24.20;68.50;;;;;;4907036;29;19963;-68
2022/09/08 07:26:47;;;;;;;;;;;24.20;67.90;;;;;;4921724;29;20427;-67
2022/09/08 07:29:21;;;;;;;;;;;24.30;68.80;;;;;;4921704;29;19911;-67
2022/09/08 07:31:49;;;;;;;;;;;24.20;68.60;;;;;;4921763;29;19911;-66
2022/09/08 07:34:20;;;;;;;;;;;24.30;68.90;;;;;;4921796;29;19911;-66
2022/09/08 07:36:48;;;;;;;;;;;24.30;68.40;;;;;;4921700;29;20390;-66
2022/09/08 07:39:32;;;;;;;;;;;24.30;68.30;;;;;;4921700;29;20328;-68
2022/09/08 07:42:03;;;;;;;;;;;24.30;68.30;;;;;;4922250;29;20443;-68
2022/09/08 07:44:29;;;;;;;;;;;24.30;67.60;;;;;;4922831;29;19919;-66
2022/09/08 07:46:54;;;;;;;;;;;24.40;67.50;;;;;;4922650;29;19911;-68
2022/09/08 07:49:49;;;;;;;;;;;24.40;67.40;;;;;;4924754;29;19922;-70
2022/09/08 07:52:30;;;;;;;;;;;24.40;68.00;;;;;;4903377;29;19918;-68
2022/09/08 07:54:59;;;;;;;;;;;24.50;68.10;;;;;;4916747;29;19915;-71
2022/09/08 07:57:35;;;;;;;;;;;24.60;68.10;;;;;;4917256;29;19927;-67
2022/09/08 08:00:07;;;;;;;;;;;24.60;67.80;;;;;;4917593;29;19915;-67
2022/09/08 08:02:35;;;;;;;;;;;24.60;68.10;;;;;;4917417;29;19919;-69
2022/09/08 08:05:07;;;;;;;;;;;24.60;67.80;;;;;;4917515;29;19915;-68
2022/09/08 08:07:38;;;;;;;;;;;24.80;68.20;;;;;;4917591;29;19930;-69
2022/09/08 08:10:22;;;;;;;;;;;24.80;67.60;;;;;;4917173;29;20347;-66
2022/09/08 08:12:50;;;;;;;;;;;24.80;67.30;;;;;;4917024;29;19921;-68
2022/09/08 08:15:28;;;;;;;;;;;24.90;68.00;;;;;;4917264;29;19929;-67
2022/09/08 08:17:56;;;;;;;;;;;24.90;68.10;;;;;;4918486;29;19919;-64
2022/09/08 08:20:22;;;;;;;;;;;24.90;67.90;;;;;;4918508;29;19915;-65
2022/09/08 08:23:12;;;;;;;;;;;25.00;68.20;;;;;;4907341;29;19922;-65
2022/09/08 08:25:44;;;;;;;;;;;25.00;68.40;;;;;;4919266;29;19911;-63
2022/09/08 08:28:09;;;;;;;;;;;25.00;68.00;;;;;;4918884;29;20259;-63
2022/09/08 08:30:38;;;;;;;;;;;25.10;68.50;;;;;;4917472;29;19958;-64
2022/09/08 08:33:14;;;;;;;;;;;25.10;67.60;;;;;;4917117;29;20355;-63
2022/09/08 08:36:09;;;;;;;;;;;25.10;68.20;;;;;;4916919;29;19919;-64
2022/09/08 08:38:40;;;;;;;;;;;25.20;68.10;;;;;;4912445;29;19921;-63
2022/09/08 08:41:26;;;;;;;;;;;25.30;68.30;;;;;;4916835;29;19919;-64
2022/09/08 08:43:57;;;;;;;;;;;25.30;67.00;;;;;;4906060;29;19918;-64
2022/09/08 08:46:35;;;;;;;;;;;25.40;66.90;;;;;;4917581;29;19915;-63
2022/09/08 08:49:03;;;;;;;;;;;25.50;66.60;;;;;;4916615;29;19943;-63
2022/09/08 08:51:38;;;;;;;;;;;25.60;66.20;;;;;;4916926;29;19912;-66
2022/09/08 08:54:04;;;;;;;;;;;25.70;66.40;;;;;;4900349;29;19923;-66
2022/09/08 08:56:44;;;;;;;;;;;25.70;66.50;;;;;;4916451;29;20279;-66
2022/09/08 08:59:28;;;;;;;;;;;25.60;66.20;;;;;;4916427;29;19937;-66
2022/09/08 09:02:12;;;;;;;;;;;25.60;66.50;;;;;;4916473;29;19970;-69
2022/09/08 09:04:57;;;;;;;;;;;25.60;67.00;;;;;;4916129;29;19923;-65
2022/09/08 09:07:30;;;;;;;;;;;25.60;66.70;;;;;;4916370;29;20287;-65
2022/09/08 09:09:55;;;;;;;;;;;25.50;67.30;;;;;;4916052;29;19934;-69
2022/09/08 09:12:36;;;;;;;;;;;25.50;67.80;;;;;;4916489;29;19915;-65
2022/09/08 09:15:25;;;;;;;;;;;25.40;67.50;;;;;;4916178;29;19949;-63
2022/09/08 09:18:02;;;;;;;;;;;25.40;66.80;;;;;;4913088;29;19998;-66
2022/09/08 09:20:34;;;;;;;;;;;25.40;66.80;;;;;;4916077;29;20370;-65
2022/09/08 09:22:59;;;;;;;;;;;25.40;67.00;;;;;;4906590;29;19911;-66
2022/09/08 09:25:25;;;;;;;;;;;25.30;67.70;;;;;;4917384;29;19922;-68
2022/09/08 09:27:56;;;;;;;;;;;24.50;70.80;;;;;;4918132;29;20439;-72
2022/09/08 09:30:23;;;;;;;;;;;23.90;72.00;;;;;;4917348;29;19981;-72
2022/09/08 09:33:09;;;;;;;;;;;23.50;76.10;;;;;;4917879;29;19969;-71
2022/09/08 09:35:49;;;;;;;;;;;23.70;77.30;;;;;;4917975;29;20456;-65
2022/09/08 09:38:15;;;;;;;;;;;23.20;80.90;;;;;;4916971;29;19922;-65
2022/09/08 09:40:44;;;;;;;;;;;23.10;82.70;;;;;;4915627;29;19919;-68
2022/09/08 09:43:23;;;;;;;;;;;22.20;85.70;;;;;;4916210;29;19998;-68
2022/09/08 09:45:48;;;;;;;;;;;22.10;88.20;;;;;;4916310;29;19911;-67
2022/09/08 09:48:26;;;;;;;;;;;22.40;86.40;;;;;;4915370;29;19959;-67
2022/09/08 09:50:54;;;;;;;;;;;21.60;89.60;;;;;;4915238;29;19911;-66
2022/09/08 09:53:23;;;;;;;;;;;21.40;89.20;;;;;;4905427;29;20527;-67
2022/09/08 09:56:07;;;;;;;;;;;21.60;87.30;;;;;;4915407;29;19923;-67
2022/09/08 09:58:35;;;;;;;;;;;21.70;88.00;;;;;;4916110;29;19950;-73
2022/09/08 10:01:04;;;;;;;;;;;21.50;87.60;;;;;;4915899;29;20335;-73
2022/09/08 10:03:30;;;;;;;;;;;20.90;90.90;;;;;;4916075;29;19918;-75
2022/09/08 10:06:05;;;;;;;;;;;20.50;92.10;;;;;;4916211;29;20428;-70
2022/09/08 10:08:42;;;;;;;;;;;20.70;92.30;;;;;;4915707;29;19923;-70
2022/09/08 10:11:27;;;;;;;;;;;20.50;92.80;;;;;;4915400;29;20399;-68
2022/09/08 10:13:52;;;;;;;;;;;20.70;93.10;;;;;;4915274;29;19918;-68
2022/09/08 10:16:30;;;;;;;;;;;21.00;93.30;;;;;;4914667;29;19919;-63
2022/09/08 10:18:58;;;;;;;;;;;20.90;92.00;;;;;;4915075;29;20330;-64
2022/09/08 10:21:36;;;;;;;;;;;20.80;91.10;;;;;;4913018;29;19922;-62
2022/09/08 10:24:20;;;;;;;;;;;20.30;91.80;;;;;;4902590;29;19998;-63
2022/09/08 10:26:51;;;;;;;;;;;20.40;92.60;;;;;;4915146;29;19933;-61
2022/09/08 10:29:20;;;;;;;;;;;20.50;92.80;;;;;;4914893;29;19915;-62
2022/09/08 10:31:51;;;;;;;;;;;20.60;91.60;;;;;;4916142;29;20279;-62
2022/09/08 10:34:35;;;;;;;;;;;20.50;91.40;;;;;;4916170;29;19936;-63
2022/09/08 10:37:19;;;;;;;;;;;20.10;93.00;;;;;;4915945;29;20454;-63
2022/09/08 10:39:45;;;;;;;;;;;20.40;93.80;;;;;;4915877;29;19911;-64
2022/09/08 10:42:16;;;;;;;;;;;20.20;93.40;;;;;;4916267;29;19922;-62
2022/09/08 10:44:49;;;;;;;;;;;20.30;93.20;;;;;;4915781;29;19915;-62
2022/09/08 10:47:29;;;;;;;;;;;20.40;93.10;;;;;;4915957;29;19915;-64
2022/09/08 10:50:07;;;;;;;;;;;20.20;93.70;;;;;;4915812;29;20014;-63
2022/09/08 10:52:44;;;;;;;;;;;20.30;93.60;;;;;;4908157;29;19911;-62
2022/09/08 10:55:28;;;;;;;;;;;20.20;94.00;;;;;;4915594;29;19911;-63
2022/09/08 10:58:23;;;;;;;;;;;20.30;93.90;;;;;;4915912;29;19915;-63
2022/09/08 11:00:55;;;;;;;;;;;20.10;94.20;;;;;;4884537;29;19951;-63
2022/09/08 11:03:32;;;;;;;;;;;20.00;94.20;;;;;;4915836;29;20225;-61
2022/09/08 11:05:58;;;;;;;;;;;20.00;95.30;;;;;;4915759;29;19911;-60
2022/09/08 11:08:38;;;;;;;;;;;20.10;94.80;;;;;;4914855;29;20346;-61
2022/09/08 11:11:10;;;;;;;;;;;20.10;94.60;;;;;;4915297;29;19923;-63
2022/09/08 11:13:56;;;;;;;;;;;20.40;93.80;;;;;;4914767;29;20003;-61
2022/09/08 11:16:21;;;;;;;;;;;20.40;93.10;;;;;;4914081;29;19938;-66
2022/09/08 11:18:56;;;;;;;;;;;20.40;93.20;;;;;;4914454;29;19919;-70
2022/09/08 11:21:27;;;;;;;;;;;20.30;93.20;;;;;;4915150;29;20370;-65
2022/09/08 11:24:12;;;;;;;;;;;20.10;93.70;;;;;;4901373;29;19915;-68
2022/09/08 11:26:56;;;;;;;;;;;20.10;94.00;;;;;;4915768;29;19917;-65
2022/09/08 11:29:24;;;;;;;;;;;20.10;94.20;;;;;;4918345;29;19915;-68
2022/09/08 11:31:53;;;;;;;;;;;20.20;93.70;;;;;;4914646;29;20260;-65
2022/09/08 11:34:18;;;;;;;;;;;20.10;94.40;;;;;;4917607;29;19921;-68
2022/09/08 11:36:56;;;;;;;;;;;20.30;94.50;;;;;;4917398;29;20374;-70
2022/09/08 11:39:34;;;;;;;;;;;20.20;93.90;;;;;;4917461;29;19915;-70
2022/09/08 11:41:59;;;;;;;;;;;20.20;94.10;;;;;;4918351;29;19918;-74
2022/09/08 11:44:38;;;;;;;;;;;20.30;93.80;;;;;;4918365;29;19915;-75
2022/09/08 11:47:18;;;;;;;;;;;20.40;93.30;;;;;;4918390;29;19915;-72
2022/09/08 11:50:13;;;;;;;;;;;20.30;93.50;;;;;;4917421;29;19919;-63
2022/09/08 11:53:08;;;;;;;;;;;20.20;93.70;;;;;;4901104;29;19967;-74
2022/09/08 11:55:36;;;;;;;;;;;20.20;93.90;;;;;;4898971;29;19923;-72
2022/09/08 11:58:11;;;;;;;;;;;20.10;94.30;;;;;;4917739;29;19911;-70
2022/09/08 12:00:51;;;;;;;;;;;20.00;94.40;;;;;;4916841;29;20279;-69
2022/09/08 12:03:23;;;;;;;;;;;20.00;95.50;;;;;;4917308;29;20030;-69
2022/09/08 12:06:13;;;;;;;;;;;20.10;96.10;;;;;;4916805;29;19965;-70
2022/09/08 12:08:57;;;;;;;;;;;20.20;95.80;;;;;;4916629;29;20357;-71
2022/09/08 12:11:41;;;;;;;;;;;20.40;95.40;;;;;;4916024;29;19911;-67
2022/09/08 12:14:16;;;;;;;;;;;20.50;95.40;;;;;;4917051;29;19918;-68
2022/09/08 12:16:45;;;;;;;;;;;20.50;95.40;;;;;;4919245;29;19923;-68
2022/09/08 12:19:23;;;;;;;;;;;20.60;95.60;;;;;;4916737;29;19970;-73
2022/09/08 12:21:58;;;;;;;;;;;20.80;94.60;;;;;;4917022;29;19934;-66
2022/09/08 12:24:31;;;;;;;;;;;21.00;93.70;;;;;;4899482;29;19983;-65
2022/09/08 12:27:02;;;;;;;;;;;21.00;93.30;;;;;;4916828;29;19911;-69
2022/09/08 12:29:50;;;;;;;;;;;21.00;93.00;;;;;;4917143;29;19922;-66
2022/09/08 12:32:23;;;;;;;;;;;21.10;92.50;;;;;;4912098;29;19915;-67
2022/09/08 12:35:04;;;;;;;;;;;21.10;92.40;;;;;;4917231;29;19998;-69
2022/09/08 12:37:32;;;;;;;;;;;21.20;92.20;;;;;;4921255;29;19923;-66
2022/09/08 12:40:14;;;;;;;;;;;21.20;92.50;;;;;;4916273;29;19915;-64
2022/09/08 12:42:51;;;;;;;;;;;21.30;92.40;;;;;;4916929;29;19922;-67
2022/09/08 12:45:18;;;;;;;;;;;21.30;92.20;;;;;;4917208;29;20291;-65
2022/09/08 12:47:43;;;;;;;;;;;21.30;92.30;;;;;;4916935;29;19922;-65
2022/09/08 12:50:12;;;;;;;;;;;21.40;92.30;;;;;;4916758;29;19915;-64
2022/09/08 12:52:50;;;;;;;;;;;21.30;92.60;;;;;;4902855;29;19922;-66
2022/09/08 12:55:19;;;;;;;;;;;21.30;92.50;;;;;;4912575;29;19915;-66
2022/09/08 12:57:47;;;;;;;;;;;21.30;92.10;;;;;;4916564;29;19986;-67
2022/09/08 13:00:14;;;;;;;;;;;21.40;92.10;;;;;;4917047;29;19954;-70
2022/09/08 13:02:59;;;;;;;;;;;21.60;91.80;;;;;;4915824;29;20343;-70
2022/09/08 13:05:30;;;;;;;;;;;21.60;91.50;;;;;;4915816;29;20008;-64
2022/09/08 13:07:56;;;;;;;;;;;21.60;91.60;;;;;;4914024;29;19915;-64
2022/09/08 13:10:27;;;;;;;;;;;21.70;91.90;;;;;;4915410;29;19923;-69
2022/09/08 13:12:55;;;;;;;;;;;21.60;91.60;;;;;;4916162;29;19970;-63
2022/09/08 13:15:26;;;;;;;;;;;21.70;91.40;;;;;;4916182;29;20021;-65
2022/09/08 13:18:03;;;;;;;;;;;21.90;91.30;;;;;;4916425;29;19915;-66
2022/09/08 13:20:38;;;;;;;;;;;21.90;92.50;;;;;;4916034;29;20343;-65
2022/09/08 13:23:10;;;;;;;;;;;22.00;92.60;;;;;;4906739;29;19941;-64
2022/09/08 13:25:38;;;;;;;;;;;22.00;92.60;;;;;;4916055;29;19961;-65
2022/09/08 13:28:04;;;;;;;;;;;22.10;91.80;;;;;;4916064;29;19919;-65
2022/09/08 13:30:36;;;;;;;;;;;22.10;91.50;;;;;;4915749;29;19934;-63
2022/09/08 13:33:21;;;;;;;;;;;22.30;91.60;;;;;;4916226;29;19912;-67
2022/09/08 13:35:56;;;;;;;;;;;22.40;91.40;;;;;;4915753;29;19923;-67
2022/09/08 13:38:21;;;;;;;;;;;22.40;90.80;;;;;;4916207;29;20275;-67
2022/09/08 13:41:05;;;;;;;;;;;22.50;91.10;;;;;;4915750;29;19911;-66
2022/09/08 13:43:36;;;;;;;;;;;22.50;90.40;;;;;;4915905;29;19918;-65
2022/09/08 13:46:14;;;;;;;;;;;22.40;90.40;;;;;;4915720;29;20006;-67
2022/09/08 13:48:51;;;;;;;;;;;22.40;90.00;;;;;;4914325;29;19915;-69
2022/09/08 13:51:21;;;;;;;;;;;22.40;90.40;;;;;;4914145;29;19915;-70
2022/09/08 13:54:06;;;;;;;;;;;22.20;90.60;;;;;;4909007;29;20105;-69
2022/09/08 13:56:59;;;;;;;;;;;22.20;90.80;;;;;;4916639;29;19970;-69
2022/09/08 13:59:33;;;;;;;;;;;22.10;91.00;;;;;;4906253;29;20363;-69
2022/09/08 14:01:59;;;;;;;;;;;22.00;91.50;;;;;;4916726;29;19991;-70
2022/09/08 14:04:24;;;;;;;;;;;22.00;91.50;;;;;;4916778;29;19950;-69
2022/09/08 14:07:10;;;;;;;;;;;21.90;91.70;;;;;;4916584;29;20356;-69
2022/09/08 14:09:36;;;;;;;;;;;21.90;91.80;;;;;;4916186;29;19933;-69
2022/09/08 14:12:06;;;;;;;;;;;21.90;92.40;;;;;;4916583;29;19911;-69
2022/09/08 14:14:35;;;;;;;;;;;21.60;94.10;;;;;;4916530;29;19915;-69
2022/09/08 14:17:18;;;;;;;;;;;21.60;94.40;;;;;;4916458;29;19927;-69
2022/09/08 14:20:03;;;;;;;;;;;21.70;94.50;;;;;;4916048;29;19922;-70
2022/09/08 14:22:44;;;;;;;;;;;21.80;94.10;;;;;;4899944;29;20647;-69
2022/09/08 14:25:24;;;;;;;;;;;22.00;91.80;;;;;;4916272;29;19911;-69
2022/09/08 14:27:57;;;;;;;;;;;22.10;92.50;;;;;;4916077;29;20450;-71
2022/09/08 14:30:24;;;;;;;;;;;22.30;92.10;;;;;;4916184;29;19982;-70
2022/09/08 14:32:49;;;;;;;;;;;22.60;91.80;;;;;;4916195;29;20022;-69
2022/09/08 14:35:36;;;;;;;;;;;22.80;90.70;;;;;;4915990;29;20006;-69
2022/09/08 14:38:01;;;;;;;;;;;23.00;90.90;;;;;;4916159;29;19976;-68
2022/09/08 14:40:31;;;;;;;;;;;23.00;91.40;;;;;;4915794;29;19915;-69
2022/09/08 14:43:03;;;;;;;;;;;23.00;90.90;;;;;;4915991;29;19915;-70